createdAt,value
2018-11-21T00:00:20.993Z,1.19
2018-11-21T00:02:50.954Z,1.21
2018-11-21T00:05:20.336Z,1.23
2018-11-21T00:07:51.137Z,1.24
2018-11-21T00:10:21.227Z,1.24
2018-11-21T00:12:54.274Z,1.29
2018-11-21T00:15:25.288Z,1.34
2018-11-21T00:17:58.387Z,1.37
2018-11-21T00:20:31.909Z,1.46
2018-11-21T00:23:17.023Z,1.56
2018-11-21T00:25:57.705Z,1.59
2018-11-21T00:28:48.350Z,1.56
2018-11-21T00:31:15.572Z,1.62
2018-11-21T00:33:52.126Z,1.65
2018-11-21T00:36:24.531Z,1.65
2018-11-21T00:38:56.667Z,1.63
2018-11-21T00:41:28.074Z,1.73
2018-11-21T00:44:08.880Z,1.73
2018-11-21T00:46:39.203Z,1.79
2018-11-21T00:49:09.627Z,1.84
2018-11-21T00:51:44.608Z,1.80
2018-11-21T00:54:15.289Z,1.86
2018-11-21T00:56:46.992Z,1.87
2018-11-21T00:59:18.528Z,1.85
2018-11-21T01:04:37.221Z,1.81
2018-11-21T01:07:09.471Z,1.90
2018-11-21T01:09:43.674Z,1.90
2018-11-21T01:12:15.001Z,1.95
2018-11-21T01:14:46.858Z,1.99
2018-11-21T01:17:18.281Z,2.02
2018-11-21T01:19:54.749Z,2.04
2018-11-21T01:23:02.652Z,2.13
2018-11-21T01:25:39.812Z,2.18
2018-11-21T01:28:10.210Z,2.17
2018-11-21T01:30:41.000Z,2.24
2018-11-21T01:33:11.269Z,2.24
2018-11-21T01:35:51.601Z,2.21
2018-11-21T01:38:23.350Z,2.23
2018-11-21T01:40:55.185Z,2.20
2018-11-21T01:43:26.637Z,2.10
2018-11-21T01:45:57.060Z,2.15
2018-11-21T01:48:26.333Z,2.14
2018-11-21T01:50:56.794Z,2.09
2018-11-21T01:53:27.595Z,2.09
2018-11-21T01:55:58.559Z,2.17
2018-11-21T01:58:28.462Z,2.09
2018-11-21T02:00:58.386Z,2.10
2018-11-21T02:03:28.320Z,2.09
2018-11-21T02:05:58.282Z,2.13
2018-11-21T02:08:28.249Z,2.08
2018-11-21T02:10:59.161Z,2.11
2018-11-21T02:13:29.005Z,2.07
2018-11-21T02:15:59.344Z,2.16
2018-11-21T02:18:29.533Z,2.18
2018-11-21T02:20:59.430Z,2.17
2018-11-21T02:23:29.999Z,2.18
2018-11-21T02:26:01.297Z,2.15
2018-11-21T02:28:31.231Z,2.14
2018-11-21T02:31:01.710Z,2.07
2018-11-21T02:33:32.639Z,2.06
2018-11-21T02:36:03.057Z,2.05
2018-11-21T02:38:35.843Z,2.07
2018-11-21T02:41:03.845Z,2.04
2018-11-21T02:43:35.233Z,2.02
2018-11-21T02:46:05.529Z,2.02
2018-11-21T02:48:37.094Z,2.04
2018-11-21T02:51:08.175Z,2.10
2018-11-21T02:53:40.079Z,2.13
2018-11-21T02:56:10.877Z,2.09
2018-11-21T02:58:40.894Z,2.11
2018-11-21T03:01:11.966Z,2.10
2018-11-21T03:03:42.567Z,2.15
2018-11-21T03:06:13.094Z,2.13
2018-11-21T03:09:03.208Z,2.13
2018-11-21T03:12:05.850Z,2.17
2018-11-21T03:14:37.040Z,2.17
2018-11-21T03:17:08.181Z,2.15
2018-11-21T03:19:39.666Z,2.21
2018-11-21T03:22:10.075Z,2.27
2018-11-21T03:24:40.078Z,2.28
2018-11-21T03:27:10.013Z,2.25
2018-11-21T03:29:40.089Z,2.25
2018-11-21T03:32:10.502Z,2.26
2018-11-21T03:34:41.824Z,2.25
2018-11-21T03:37:12.748Z,2.26
2018-11-21T03:39:43.705Z,2.28
2018-11-21T03:42:13.996Z,2.27
2018-11-21T03:44:49.509Z,2.25
2018-11-21T03:47:21.302Z,2.23
2018-11-21T03:49:52.258Z,2.27
2018-11-21T03:52:26.529Z,2.27
2018-11-21T03:54:57.752Z,2.25
2018-11-21T03:57:28.890Z,2.26
2018-11-21T04:00:02.388Z,2.37
2018-11-21T04:02:32.555Z,2.34
2018-11-21T04:05:11.916Z,2.29
2018-11-21T04:07:45.857Z,2.30
2018-11-21T04:10:16.334Z,2.24
2018-11-21T04:12:48.970Z,2.22
2018-11-21T04:15:23.314Z,2.28
2018-11-21T04:17:54.098Z,2.29
2018-11-21T04:20:26.310Z,2.18
2018-11-21T04:23:02.779Z,2.28
2018-11-21T04:25:42.447Z,2.28
2018-11-21T04:28:11.791Z,2.18
2018-11-21T04:30:46.643Z,2.21
2018-11-21T04:33:18.632Z,2.17
2018-11-21T04:35:57.732Z,2.20
2018-11-21T04:38:29.805Z,2.27
2018-11-21T04:41:00.977Z,2.25
2018-11-21T04:43:34.148Z,2.29
2018-11-21T04:46:06.974Z,2.27
2018-11-21T04:48:37.821Z,2.20
2018-11-21T04:51:09.292Z,2.38
2018-11-21T04:53:43.123Z,2.37
2018-11-21T04:56:20.273Z,2.32
2018-11-21T04:59:01.029Z,2.31
2018-11-21T05:01:32.820Z,2.25
2018-11-21T05:04:04.860Z,2.31
2018-11-21T05:06:35.814Z,2.25
2018-11-21T05:09:15.328Z,2.33
2018-11-21T05:11:48.156Z,2.27
2018-11-21T05:14:18.704Z,2.20
2018-11-21T05:16:50.729Z,2.30
2018-11-21T05:19:22.454Z,2.34
2018-11-21T05:21:55.363Z,2.37
2018-11-21T05:24:31.205Z,2.35
2018-11-21T05:27:03.515Z,2.45
2018-11-21T05:29:38.984Z,2.50
2018-11-21T05:32:17.801Z,2.39
2018-11-21T05:34:46.933Z,2.35
2018-11-21T05:37:18.166Z,2.33
2018-11-21T05:39:51.717Z,2.33
2018-11-21T05:42:23.074Z,2.33
2018-11-21T05:44:55.222Z,2.27
2018-11-21T05:47:28.759Z,2.30
2018-11-21T05:50:07.844Z,2.27
2018-11-21T05:53:01.493Z,2.27
2018-11-21T05:55:31.636Z,2.23
2018-11-21T05:58:03.396Z,2.28
2018-11-21T06:00:32.801Z,2.31
2018-11-21T06:03:09.037Z,2.27
2018-11-21T06:05:43.296Z,2.30
2018-11-21T06:08:13.608Z,2.30
2018-11-21T06:10:43.262Z,2.24
2018-11-21T06:13:13.006Z,2.22
2018-11-21T06:15:43.567Z,2.27
2018-11-21T06:18:13.811Z,2.32
2018-11-21T06:20:50.344Z,2.31
2018-11-21T06:23:22.303Z,2.32
2018-11-21T06:25:58.897Z,2.33
2018-11-21T06:28:35.307Z,2.34
2018-11-21T06:31:07.099Z,2.44
2018-11-21T06:33:38.745Z,2.33
2018-11-21T06:36:11.928Z,2.46
2018-11-21T06:38:41.364Z,2.45
2018-11-21T06:41:17.226Z,2.46
2018-11-21T06:43:50.474Z,2.49
2018-11-21T06:46:19.097Z,2.49
2018-11-21T06:48:51.900Z,2.41
2018-11-21T06:51:27.255Z,2.40
2018-11-21T06:54:00.507Z,2.38
2018-11-21T06:56:36.141Z,2.27
2018-11-21T06:59:03.583Z,2.32
2018-11-21T07:01:33.355Z,2.26
2018-11-21T07:04:11.794Z,2.30
2018-11-21T07:06:42.916Z,2.20
2018-11-21T07:09:14.449Z,2.31
2018-11-21T07:11:47.367Z,2.32
2018-11-21T07:14:20.839Z,2.34
2018-11-21T07:16:52.785Z,2.33
2018-11-21T07:19:29.048Z,2.21
2018-11-21T07:22:03.077Z,2.40
2018-11-21T07:24:34.325Z,2.38
2018-11-21T07:27:05.649Z,2.38
2018-11-21T07:30:00.267Z,2.38
2018-11-21T07:32:31.302Z,2.43
2018-11-21T07:35:27.057Z,2.41
2018-11-21T07:38:04.727Z,2.51
2018-11-21T07:40:35.919Z,2.51
2018-11-21T07:43:06.781Z,2.43
2018-11-21T07:45:37.898Z,2.58
2018-11-21T07:48:08.848Z,2.69
2018-11-21T07:50:39.917Z,2.66
2018-11-21T07:53:10.452Z,2.62
2018-11-21T07:55:41.944Z,2.66
2018-11-21T07:58:14.358Z,2.69
2018-11-21T08:01:18.212Z,2.77
2018-11-21T08:04:13.090Z,2.81
2018-11-21T08:07:02.757Z,2.74
2018-11-21T08:09:54.387Z,2.78
2018-11-21T08:12:54.240Z,2.64
2018-11-21T08:15:54.339Z,2.51
2018-11-21T08:18:54.622Z,2.78
2018-11-21T08:21:53.938Z,2.93
2018-11-21T08:24:43.320Z,2.84
2018-11-21T08:27:39.399Z,2.82
2018-11-21T08:30:12.431Z,2.81
2018-11-21T08:32:52.320Z,2.67
2018-11-21T08:35:26.987Z,2.68
2018-11-21T08:38:00.322Z,2.73
2018-11-21T08:40:31.550Z,2.84
2018-11-21T08:43:46.372Z,2.95
2018-11-21T08:46:19.848Z,2.98
2018-11-21T08:48:56.140Z,2.97
2018-11-21T08:51:31.719Z,2.98
2018-11-21T08:54:08.894Z,2.95
2018-11-21T08:56:54.291Z,2.90
2018-11-21T08:59:29.414Z,3.04
2018-11-21T09:02:12.342Z,3.00
2018-11-21T09:04:50.671Z,2.89
2018-11-21T09:07:33.111Z,2.99
2018-11-21T09:10:01.656Z,3.00
2018-11-21T09:12:32.040Z,3.21
2018-11-21T09:15:03.558Z,3.24
2018-11-21T09:17:33.955Z,3.08
2018-11-21T09:20:04.206Z,3.03
2018-11-21T09:22:36.293Z,3.03
2018-11-21T09:25:07.395Z,3.08
2018-11-21T09:27:37.769Z,3.10
2018-11-21T09:30:14.777Z,3.09
2018-11-21T09:32:54.513Z,2.98
2018-11-21T09:35:57.557Z,2.94
2018-11-21T09:38:35.579Z,2.92
2018-11-21T09:41:21.429Z,2.92
2018-11-21T09:47:00.493Z,2.90
2018-11-21T09:49:50.242Z,2.82
2018-11-21T09:52:39.165Z,2.83
2018-11-21T09:58:09.425Z,2.97
2018-11-21T10:01:35.739Z,2.95
2018-11-21T10:04:18.987Z,3.16
2018-11-21T10:06:57.468Z,3.05
2018-11-21T10:09:43.533Z,3.08
2018-11-21T10:12:38.515Z,3.05
2018-11-21T10:15:28.546Z,3.02
2018-11-21T10:17:56.459Z,2.97
2018-11-21T10:20:52.585Z,3.08
2018-11-21T10:24:27.126Z,2.98
2018-11-21T10:29:54.266Z,3.10
2018-11-21T10:32:25.554Z,3.21
2018-11-21T10:35:17.596Z,3.23
2018-11-21T10:45:04.889Z,3.17
2018-11-21T10:47:50.039Z,3.09
2018-11-21T10:52:13.381Z,3.04
2018-11-21T10:53:45.473Z,3.08
2018-11-21T10:56:13.572Z,2.95
2018-11-21T10:59:04.525Z,3.08
2018-11-21T11:02:21.574Z,2.95
2018-11-21T11:05:48.905Z,2.90
2018-11-21T11:08:45.568Z,2.83
2018-11-21T11:12:15.761Z,2.83
2018-11-21T11:15:11.638Z,2.88
2018-11-21T11:18:26.539Z,2.97
2018-11-21T11:21:53.127Z,2.99
2018-11-21T11:25:01.398Z,3.03
2018-11-21T11:31:17.523Z,2.90
2018-11-21T11:34:05.988Z,3.10
2018-11-21T11:37:20.808Z,3.13
2018-11-21T11:40:12.897Z,3.04
2018-11-21T11:43:23.480Z,3.07
2018-11-21T11:46:34.242Z,3.19
2018-11-21T11:49:28.829Z,3.40
2018-11-21T11:52:28.249Z,3.14
2018-11-21T11:55:33.469Z,3.30
2018-11-21T11:58:29.666Z,3.25
2018-11-21T12:01:44.293Z,3.28
2018-11-21T12:04:44.462Z,3.34
2018-11-21T12:07:53.981Z,3.46
2018-11-21T12:10:41.350Z,3.40
2018-11-21T12:14:07.147Z,3.44
2018-11-21T12:17:06.808Z,3.50
2018-11-21T12:20:06.521Z,3.36
2018-11-21T12:23:12.293Z,3.43
2018-11-21T12:26:21.915Z,3.37
2018-11-21T12:29:28.239Z,3.28
2018-11-21T12:32:33.396Z,3.42
2018-11-21T12:35:42.722Z,3.34
2018-11-21T12:41:16.696Z,2.98
2018-11-21T12:44:11.781Z,3.03
2018-11-21T12:47:08.176Z,3.18
2018-11-21T12:50:05.888Z,3.05
2018-11-21T12:53:32.035Z,3.02
2018-11-21T12:56:58.094Z,3.21
2018-11-21T13:00:24.756Z,3.28
2018-11-21T13:03:32.285Z,3.30
2018-11-21T13:06:59.811Z,3.41
2018-11-21T13:09:32.307Z,3.43
2018-11-21T13:12:31.077Z,3.47
2018-11-21T13:15:43.223Z,3.40
2018-11-21T13:18:33.923Z,3.32
2018-11-21T13:21:35.801Z,3.42
2018-11-21T13:24:27.964Z,3.34
2018-11-21T13:28:00.563Z,3.32
2018-11-21T13:30:53.455Z,3.24
2018-11-21T13:34:00.294Z,3.23
2018-11-21T13:36:57.818Z,2.93
2018-11-21T13:39:49.782Z,3.24
2018-11-21T13:42:58.595Z,3.14
2018-11-21T13:46:11.882Z,3.18
2018-11-21T13:49:00.385Z,3.00
2018-11-21T13:52:16.159Z,3.27
2018-11-21T13:54:58.868Z,3.17
2018-11-21T13:57:53.006Z,3.09
2018-11-21T14:00:31.005Z,3.00
2018-11-21T14:03:14.823Z,3.21
2018-11-21T14:07:29.672Z,3.13
2018-11-21T14:10:07.827Z,3.47
2018-11-21T14:13:10.215Z,3.40
2018-11-21T14:15:53.569Z,3.25
2018-11-21T14:18:39.576Z,3.27
2018-11-21T14:21:07.456Z,3.27
2018-11-21T14:23:45.182Z,3.21
2018-11-21T14:26:19.774Z,3.07
2018-11-21T14:28:54.865Z,3.10
2018-11-21T14:31:28.661Z,3.01
2018-11-21T14:34:27.165Z,3.00
2018-11-21T14:37:11.766Z,3.05
2018-11-21T14:39:53.469Z,3.05
2018-11-21T14:42:29.857Z,3.04
2018-11-21T14:45:07.718Z,3.05
2018-11-21T14:47:41.397Z,3.08
2018-11-21T14:50:22.478Z,3.05
2018-11-21T14:55:55.268Z,3.09
2018-11-21T14:58:26.236Z,3.04
2018-11-21T15:00:58.684Z,3.05
2018-11-21T15:03:29.242Z,3.02
2018-11-21T15:05:58.739Z,2.93
2018-11-21T15:08:36.062Z,3.02
2018-11-21T15:11:06.430Z,2.88
2018-11-21T15:13:36.594Z,3.04
2018-11-21T15:16:06.743Z,3.03
2018-11-21T15:18:36.658Z,3.03
2018-11-21T15:21:16.289Z,2.99
2018-11-21T15:23:40.285Z,2.98
2018-11-21T15:26:09.759Z,2.90
2018-11-21T15:28:42.987Z,2.82
2018-11-21T15:31:15.814Z,2.96
2018-11-21T15:33:45.735Z,3.03
2018-11-21T15:36:16.063Z,3.04
2018-11-21T15:38:45.523Z,3.08
2018-11-21T15:41:15.409Z,3.07
2018-11-21T15:43:45.271Z,3.02
2018-11-21T15:46:15.461Z,3.02
2018-11-21T15:48:45.325Z,3.02
2018-11-21T15:51:15.238Z,3.03
2018-11-21T15:53:47.691Z,3.04
2018-11-21T15:56:18.515Z,3.03
2018-11-21T15:58:49.520Z,3.03
2018-11-21T16:01:19.304Z,3.01
2018-11-21T16:03:50.331Z,2.96
2018-11-21T16:06:24.631Z,3.04
2018-11-21T16:09:01.918Z,2.99
2018-11-21T16:11:32.467Z,3.01
2018-11-21T16:14:02.253Z,3.00
2018-11-21T16:16:32.932Z,3.02
2018-11-21T16:19:03.685Z,3.09
2018-11-21T16:21:34.010Z,3.17
2018-11-21T16:24:40.328Z,3.02
2018-11-21T16:27:10.188Z,3.07
2018-11-21T16:29:40.348Z,3.11
2018-11-21T16:32:10.927Z,3.14
2018-11-21T16:34:40.703Z,3.05
2018-11-21T16:37:11.107Z,3.04
2018-11-21T16:39:42.279Z,3.13
2018-11-21T16:42:12.036Z,3.14
2018-11-21T16:44:41.873Z,2.95
2018-11-21T16:47:11.741Z,3.10
2018-11-21T16:49:41.829Z,3.07
2018-11-21T16:52:12.830Z,2.98
2018-11-21T16:54:43.014Z,2.91
2018-11-21T16:57:13.548Z,2.93
2018-11-21T16:59:43.772Z,2.93
2018-11-21T17:02:13.311Z,2.88
2018-11-21T17:04:43.529Z,2.94
2018-11-21T17:07:13.438Z,2.97
2018-11-21T17:09:47.209Z,3.01
2018-11-21T17:12:17.600Z,2.95
2018-11-21T17:14:47.609Z,2.97
2018-11-21T17:17:17.024Z,3.00
2018-11-21T17:19:46.520Z,2.95
2018-11-21T17:22:16.037Z,2.92
2018-11-21T17:24:46.549Z,2.93
2018-11-21T17:27:18.026Z,2.87
2018-11-21T17:29:53.747Z,2.89
2018-11-21T17:32:18.603Z,2.83
2018-11-21T17:34:48.336Z,2.86
2018-11-21T17:37:19.350Z,2.88
2018-11-21T17:39:51.166Z,2.94
2018-11-21T17:42:23.948Z,2.90
2018-11-21T17:44:53.747Z,2.81
2018-11-21T17:47:23.821Z,2.87
2018-11-21T17:49:54.076Z,2.82
2018-11-21T17:52:23.922Z,2.87
2018-11-21T17:54:54.089Z,2.82
2018-11-21T17:57:27.952Z,2.84
2018-11-21T17:59:54.873Z,2.81
2018-11-21T18:02:25.367Z,2.76
2018-11-21T18:04:55.561Z,2.89
2018-11-21T18:07:26.137Z,2.80
2018-11-21T18:09:56.350Z,2.79
2018-11-21T18:12:29.136Z,2.81
2018-11-21T18:15:01.372Z,2.80
2018-11-21T18:17:31.229Z,2.76
2018-11-21T18:20:01.483Z,2.79
2018-11-21T18:22:31.448Z,2.75
2018-11-21T18:25:02.299Z,2.87
2018-11-21T18:27:36.013Z,2.87
2018-11-21T18:30:09.448Z,2.87
2018-11-21T18:32:39.690Z,2.88
2018-11-21T18:35:16.878Z,2.82
2018-11-21T18:37:50.534Z,2.86
2018-11-21T18:40:23.136Z,2.90
2018-11-21T18:42:55.392Z,2.91
2018-11-21T18:45:32.365Z,2.68
2018-11-21T18:48:03.130Z,2.76
2018-11-21T18:50:33.294Z,2.81
2018-11-21T18:53:05.132Z,2.75
2018-11-21T18:55:37.459Z,2.88
2018-11-21T18:58:57.689Z,2.90
2018-11-21T19:01:27.725Z,2.87
2018-11-21T19:03:58.088Z,2.82
2018-11-21T19:06:27.943Z,2.72
2018-11-21T19:08:58.267Z,2.88
2018-11-21T19:11:28.720Z,2.88
2018-11-21T19:13:58.986Z,2.75
2018-11-21T19:16:28.787Z,2.88
2018-11-21T19:18:58.638Z,2.96
2018-11-21T19:21:28.125Z,2.97
2018-11-21T19:23:58.714Z,3.00
2018-11-21T19:26:28.112Z,2.76
2018-11-21T19:28:57.841Z,3.00
2018-11-21T19:31:29.779Z,2.87
2018-11-21T19:33:57.697Z,2.99
2018-11-21T19:36:28.141Z,2.87
2018-11-21T19:38:58.418Z,3.01
2018-11-21T19:41:29.217Z,3.09
2018-11-21T19:44:00.390Z,2.92
2018-11-21T19:46:30.662Z,3.00
2018-11-21T19:49:00.111Z,2.98
2018-11-21T19:51:30.092Z,2.92
2018-11-21T19:54:00.043Z,2.81
2018-11-21T19:56:29.650Z,2.71
2018-11-21T19:58:59.977Z,2.54
2018-11-21T20:01:29.847Z,2.51
2018-11-21T20:04:00.600Z,2.48
2018-11-21T20:06:30.147Z,2.42
2018-11-21T20:09:00.074Z,2.48
2018-11-21T20:11:30.331Z,2.41
2018-11-21T20:14:00.189Z,2.44
2018-11-21T20:16:30.068Z,2.40
2018-11-21T20:18:59.891Z,2.38
2018-11-21T20:21:30.234Z,2.36
2018-11-21T20:23:59.618Z,2.30
2018-11-21T20:26:29.499Z,2.27
2018-11-21T20:29:00.830Z,2.30
2018-11-21T20:31:30.634Z,2.31
2018-11-21T20:34:01.462Z,2.30
2018-11-21T20:36:34.238Z,2.31
2018-11-21T20:39:04.540Z,2.29
2018-11-21T20:41:35.386Z,2.26
2018-11-21T20:44:06.132Z,2.29
2018-11-21T20:46:36.615Z,2.24
2018-11-21T20:49:11.286Z,2.25
2018-11-21T20:51:37.013Z,2.22
2018-11-21T20:54:06.505Z,2.17
2018-11-21T20:56:36.785Z,2.21
2018-11-21T20:59:06.817Z,2.12
2018-11-21T21:01:36.902Z,2.16
2018-11-21T21:04:07.287Z,2.10
2018-11-21T21:06:37.646Z,2.19
2018-11-21T21:09:12.816Z,2.16
2018-11-21T21:11:43.350Z,2.15
2018-11-21T21:14:12.765Z,2.23
2018-11-21T21:16:42.584Z,2.14
2018-11-21T21:19:12.383Z,2.22
2018-11-21T21:21:42.663Z,2.16
2018-11-21T21:24:12.933Z,2.13
2018-11-21T21:26:42.787Z,2.11
2018-11-21T21:29:12.761Z,2.09
2018-11-21T21:32:01.487Z,1.97
2018-11-21T21:34:31.465Z,2.05
2018-11-21T21:37:01.696Z,1.97
2018-11-21T21:39:31.675Z,1.94
2018-11-21T21:42:01.474Z,2.01
2018-11-21T21:44:31.780Z,2.09
2018-11-21T21:47:01.256Z,2.05
2018-11-21T21:49:31.174Z,2.03
2018-11-21T21:52:01.224Z,2.03
2018-11-21T21:54:31.459Z,2.09
2018-11-21T21:57:04.005Z,2.00
2018-11-21T21:59:32.105Z,2.00
2018-11-21T22:02:02.488Z,2.02
2018-11-21T22:04:33.094Z,1.98
2018-11-21T22:07:02.582Z,1.99
2018-11-21T22:09:33.627Z,1.91
2018-11-21T22:12:06.731Z,1.94
2018-11-21T22:14:36.299Z,1.95
2018-11-21T22:17:06.046Z,1.95
2018-11-21T22:19:35.895Z,1.93
2018-11-21T22:22:06.818Z,1.86
2018-11-21T22:24:38.229Z,1.81
2018-11-21T22:27:08.517Z,1.77
2018-11-21T22:29:39.024Z,1.78
2018-11-21T22:32:10.037Z,1.77
2018-11-21T22:34:39.994Z,1.76
2018-11-21T22:37:09.546Z,1.81
2018-11-21T22:39:40.046Z,1.73
2018-11-21T22:42:11.286Z,1.81
2018-11-21T22:44:43.470Z,1.77
2018-11-21T22:47:12.904Z,1.84
2018-11-21T22:49:51.007Z,1.81
2018-11-21T22:52:22.800Z,1.78
2018-11-21T22:54:52.686Z,1.69
2018-11-21T22:57:25.059Z,1.64
2018-11-21T23:00:02.925Z,1.72
2018-11-21T23:02:38.002Z,1.72
2018-11-21T23:05:09.733Z,1.73
2018-11-21T23:07:41.261Z,1.71
2018-11-21T23:10:13.402Z,1.69
2018-11-21T23:12:45.461Z,1.70
2018-11-21T23:15:15.649Z,1.71
2018-11-21T23:17:49.579Z,1.72
2018-11-21T23:20:20.315Z,1.69
2018-11-21T23:22:51.364Z,1.69
2018-11-21T23:25:21.557Z,1.73
2018-11-21T23:27:52.257Z,1.68
2018-11-21T23:30:21.754Z,1.75
2018-11-21T23:32:53.036Z,1.70
2018-11-21T23:35:25.576Z,1.71
2018-11-21T23:37:55.855Z,1.73
2018-11-21T23:40:25.760Z,1.71
2018-11-21T23:42:56.608Z,1.74
2018-11-21T23:45:26.745Z,1.75
2018-11-21T23:47:56.890Z,1.74
2018-11-21T23:50:26.784Z,1.73
2018-11-21T23:52:57.330Z,1.68
2018-11-21T23:55:27.875Z,1.78
2018-11-21T23:57:58.066Z,1.91
